RJFR/KKJ METAR and TAF weather

Enter ICAO airport designator
Station Type Date Time Source
RJFR METAR 2019/07/17 18:00 UTC NOAA

RJFR 171800Z 08003KT 010V120 9999 FEW015 SCT050 BKN150 25/22 Q1010


Station Type Date Time Source
RJFR Decoded METAR 2019/07/17 18:00 UTC NOAA

Kitakyushu Airport, Japan (RJFR) 33-50N 130-57E 6M
Jul 17, 2019 - 02:00 PM EDT / 2019.07.17 1800 UTC
Wind: from the E (080 degrees) at 3 MPH (3 KT) (direction variable):0
Visibility: greater than 7 mile(s):0
Sky conditions: mostly cloudy
Temperature: 77 F (25 C)
Dew Point: 71 F (22 C)
Relative Humidity: 83%
Pressure (altimeter): 29.83 in. Hg (1010 hPa)
ob: RJFR 171800Z 08003KT 010V120 9999 FEW015 SCT050 BKN150 25/22 Q1010
cycle: 18

Station Type Date Time Source
RJFR TAF 2019/07/17 18:00 UTC NOAA

TAF RJFR 171705Z 1718/1900 06006KT 8000 -SHRA FEW005 SCT010 BKN020
TEMPO 1718/1803 4000 -SHRA BR FEW003 SCT005 BKN008
TEMPO 1803/1809 3000 TSRA BR FEW003 BKN008 BKN015 FEW020CB
TEMPO 1809/1815 4000 SHRA BR FEW005 BKN008 BKN015
TEMPO 1815/1900 3000 SHRA BR FEW005 BKN008 BKN015

Example: see airport list